Luka, Czech Republic

12:32 PM CEST on August 26, 2016 (GMT +0200)
Vilemov, Olomouc | | Change Station

Elev 1253 ft 49.64 °N, 17.00 °E | Updated 8 seconds ago

Clear
Clear
77.0 °F
Feels Like 79 °F
N
14.5
Wind Variable Wind from South
Gusts 15.2 mph

Today
High -- | Low -- °F
--% Chance of Precip.
Yesterday
High -- | Low -- °F
Precip. -- in
Pressure 30.21 in
Visibility -9999.0 miles
Clouds
Heat Index 79 °F
Dew Point 59 °F
Humidity 54%
Rainfall 0.00 in
Snow Depth Not available.
5:59 AM 7:47 PM
Waning Crescent, 36% visible
METAR LKTB 261000Z 13009KT 110V190 CAVOK 25/13 Q1023 NOSIG
Pressure 30.21 in
Visibility -9999.0 miles
Clouds
Heat Index 79 °F
Dew Point 59 °F
Humidity 54%
Rainfall 0.00 in
Snow Depth Not available.
5:59 AM 7:47 PM
Waning Crescent, 36% visible
METAR LKTB 261000Z 13009KT 110V190 CAVOK 25/13 Q1023 NOSIG

10-Day Weather Forecast

×

Almanac

Astronomy

Aug. 26, 2016 Rise Set
Actual Time
Civil Twilight
Nautical Twilight
Astronomical Twilight
Moon
Length of Visible Light
Length of Day
Tomorrow will be .
, % of the Moon is Illuminated

Today's Extremes

Country Highs Country Lows

Community

WunderPhotos

Upload Photos

1,935,069 photos uploaded!

WunderBlog® & News

Nearby

Air Quality

  Air Quality AQ Index Pollutant
Not available.

Snow Depth

Station Depth Elevation

Earthquake Activity

City Distance Mag. Time & Date
Minimum magnitude displayed is 2.5.

Coastal Water Temperatures

Place Temperature

Stations

Nearby Weather Stations

Station Location Temp. Windchill Dew Point Humidity Wind Precip. Elev Updated Type